createdAt,value
2017-01-16T00:01:06.300Z,0
2017-01-16T00:02:21.661Z,0
2017-01-16T00:03:35.771Z,0
2017-01-16T00:04:49.399Z,0
2017-01-16T00:06:03.002Z,0
2017-01-16T00:07:16.702Z,0
2017-01-16T00:08:30.637Z,0
2017-01-16T00:09:44.272Z,0
2017-01-16T00:10:57.908Z,0
2017-01-16T00:12:11.526Z,0
2017-01-16T00:13:25.356Z,0
2017-01-16T00:14:41.028Z,0
2017-01-16T00:15:54.719Z,0
2017-01-16T00:17:08.296Z,0
2017-01-16T00:18:22.020Z,0
2017-01-16T00:19:35.589Z,0
2017-01-16T00:20:49.921Z,0
2017-01-16T00:22:03.980Z,0
2017-01-16T00:23:19.703Z,0
2017-01-16T00:24:33.298Z,0
2017-01-16T00:25:47.046Z,0
2017-01-16T00:27:01.321Z,0
2017-01-16T00:28:14.996Z,0
2017-01-16T00:29:28.789Z,0
2017-01-16T00:30:42.426Z,0
2017-01-16T00:31:56.397Z,0
2017-01-16T00:33:10.975Z,0
2017-01-16T00:34:24.964Z,0
2017-01-16T00:35:38.619Z,0
2017-01-16T00:36:52.647Z,0
2017-01-16T00:38:06.763Z,0
2017-01-16T00:39:20.841Z,0
2017-01-16T00:40:34.829Z,0
2017-01-16T00:41:49.190Z,0
2017-01-16T00:43:03.285Z,0
2017-01-16T00:44:17.104Z,0
2017-01-16T00:45:30.980Z,0
2017-01-16T00:46:45.281Z,0
2017-01-16T00:47:58.987Z,0
2017-01-16T00:49:12.682Z,0
2017-01-16T00:50:26.371Z,0
2017-01-16T00:51:40.267Z,0
2017-01-16T00:52:54.112Z,0
2017-01-16T00:54:07.886Z,0
2017-01-16T00:55:21.835Z,0
2017-01-16T00:56:35.604Z,0
2017-01-16T00:57:49.596Z,0
2017-01-16T00:59:03.815Z,0
2017-01-16T01:00:17.688Z,0
2017-01-16T01:01:31.364Z,0
2017-01-16T01:02:44.945Z,0
2017-01-16T01:04:01.038Z,0
2017-01-16T01:05:14.945Z,0
2017-01-16T01:06:28.574Z,0
2017-01-16T01:07:42.597Z,0
2017-01-16T01:08:56.244Z,0
2017-01-16T01:10:10.681Z,0
2017-01-16T01:11:24.606Z,0
2017-01-16T01:12:38.250Z,0
2017-01-16T01:13:52.271Z,0
2017-01-16T01:15:05.870Z,0
2017-01-16T01:16:19.896Z,0
2017-01-16T01:17:34.055Z,0
2017-01-16T01:18:48.112Z,0
2017-01-16T01:20:01.770Z,0
2017-01-16T01:21:16.766Z,0
2017-01-16T01:22:30.721Z,0
2017-01-16T01:23:44.404Z,0
2017-01-16T01:24:58.060Z,0
2017-01-16T01:26:11.698Z,0
2017-01-16T01:27:25.518Z,0
2017-01-16T01:28:39.296Z,0
2017-01-16T01:29:53.115Z,0
2017-01-16T01:31:06.715Z,0
2017-01-16T01:32:21.654Z,0
2017-01-16T01:33:35.270Z,0
2017-01-16T01:34:49.212Z,0
2017-01-16T01:36:03.239Z,0
2017-01-16T01:37:16.924Z,0
2017-01-16T01:38:30.572Z,0
2017-01-16T01:39:44.176Z,0
2017-01-16T01:40:58.131Z,0
2017-01-16T01:42:11.824Z,0
2017-01-16T01:43:25.488Z,0
2017-01-16T01:44:39.065Z,0
2017-01-16T01:45:52.667Z,0
2017-01-16T01:47:06.612Z,0
2017-01-16T01:48:20.368Z,0
2017-01-16T01:49:34.442Z,0
2017-01-16T01:50:48.075Z,0
2017-01-16T01:52:01.673Z,0
2017-01-16T01:53:15.780Z,0
2017-01-16T01:54:29.401Z,0
2017-01-16T01:55:43.034Z,0
2017-01-16T01:56:56.627Z,0
2017-01-16T01:58:10.304Z,0
2017-01-16T01:59:25.648Z,0
2017-01-16T02:00:39.325Z,0
2017-01-16T02:01:52.947Z,0
2017-01-16T02:03:07.657Z,0
2017-01-16T02:04:21.313Z,0
2017-01-16T02:05:35.199Z,0
2017-01-16T02:06:48.744Z,0
2017-01-16T02:08:02.361Z,0
2017-01-16T02:12:30.853Z,0
2017-01-16T02:13:44.405Z,0
2017-01-16T02:14:58.187Z,0
2017-01-16T02:16:11.774Z,0
2017-01-16T02:17:25.432Z,0
2017-01-16T02:18:39.543Z,0
2017-01-16T02:19:53.317Z,0
2017-01-16T02:21:08.687Z,0
2017-01-16T02:22:28.161Z,0
2017-01-16T02:23:41.788Z,0
2017-01-16T02:24:55.707Z,0
2017-01-16T02:26:10.337Z,0
2017-01-16T02:27:26.033Z,0
2017-01-16T02:28:42.995Z,0
2017-01-16T02:30:00.123Z,0
2017-01-16T02:31:14.953Z,0
2017-01-16T02:32:28.606Z,0
2017-01-16T02:33:42.567Z,0
2017-01-16T02:34:56.135Z,0
2017-01-16T02:36:09.703Z,0
2017-01-16T02:37:23.587Z,0
2017-01-16T02:38:37.272Z,0
2017-01-16T02:39:50.854Z,0
2017-01-16T02:41:04.411Z,0
2017-01-16T02:42:18.000Z,0
2017-01-16T02:43:32.174Z,0
2017-01-16T02:44:45.868Z,0
2017-01-16T02:45:59.397Z,0
2017-01-16T02:47:12.979Z,0
2017-01-16T02:48:26.691Z,0
2017-01-16T02:49:40.778Z,0
2017-01-16T02:50:54.745Z,0
2017-01-16T02:52:08.482Z,0
2017-01-16T02:53:22.786Z,0
2017-01-16T02:54:36.359Z,0
2017-01-16T02:55:50.231Z,0
2017-01-16T02:57:03.777Z,0
2017-01-16T02:58:17.354Z,0
2017-01-16T02:59:31.011Z,0
2017-01-16T03:00:44.977Z,0
2017-01-16T03:01:58.857Z,0
2017-01-16T03:03:12.421Z,0
2017-01-16T03:04:26.536Z,0
2017-01-16T03:05:40.520Z,0
2017-01-16T03:06:54.074Z,0
2017-01-16T03:08:08.073Z,0
2017-01-16T03:09:21.607Z,0
2017-01-16T03:10:36.392Z,0
2017-01-16T03:11:49.858Z,0
2017-01-16T03:13:03.302Z,0
2017-01-16T03:14:17.160Z,0
2017-01-16T03:15:30.673Z,0
2017-01-16T03:16:44.085Z,0
2017-01-16T03:17:57.542Z,0
2017-01-16T03:19:10.960Z,0
2017-01-16T03:20:24.943Z,0
2017-01-16T03:21:38.633Z,0
2017-01-16T03:22:52.079Z,0
2017-01-16T03:24:05.550Z,0
2017-01-16T03:25:19.018Z,0
2017-01-16T03:26:33.090Z,0
2017-01-16T03:27:46.528Z,0
2017-01-16T03:29:00.005Z,0
2017-01-16T03:30:13.411Z,0
2017-01-16T03:31:27.202Z,0
2017-01-16T03:32:40.937Z,0
2017-01-16T03:33:54.353Z,0
2017-01-16T03:35:08.194Z,0
2017-01-16T03:36:22.119Z,0
2017-01-16T03:37:35.555Z,0
2017-01-16T03:38:51.416Z,0
2017-01-16T03:40:04.831Z,0
2017-01-16T03:41:18.749Z,0
2017-01-16T03:42:32.235Z,0
2017-01-16T03:43:45.668Z,0
2017-01-16T03:44:59.401Z,0
2017-01-16T03:46:12.842Z,0
2017-01-16T03:47:27.520Z,0
2017-01-16T03:48:40.961Z,0
2017-01-16T03:49:54.775Z,0
2017-01-16T03:51:08.511Z,0
2017-01-16T03:52:22.045Z,0
2017-01-16T03:53:35.700Z,0
2017-01-16T03:54:49.150Z,0
2017-01-16T03:56:02.585Z,0
2017-01-16T03:57:16.289Z,0
2017-01-16T03:58:31.264Z,0
2017-01-16T03:59:44.685Z,0
2017-01-16T04:00:58.803Z,0
2017-01-16T04:02:12.286Z,0
2017-01-16T04:03:26.139Z,0
2017-01-16T04:04:39.574Z,0
2017-01-16T04:05:53.024Z,0
2017-01-16T04:07:06.891Z,0
2017-01-16T04:08:20.459Z,0
2017-01-16T04:09:34.182Z,0
2017-01-16T04:10:47.583Z,0
2017-01-16T04:12:01.036Z,0
2017-01-16T04:13:14.899Z,0
2017-01-16T04:14:28.416Z,0
2017-01-16T04:15:42.156Z,0
2017-01-16T04:16:55.585Z,0
2017-01-16T04:18:09.009Z,0
2017-01-16T04:19:22.519Z,0
2017-01-16T04:20:35.983Z,0
2017-01-16T04:21:49.846Z,0
2017-01-16T04:23:04.886Z,0
2017-01-16T04:24:20.212Z,0
2017-01-16T04:25:33.665Z,0
2017-01-16T04:26:47.104Z,0
2017-01-16T04:28:00.851Z,0
2017-01-16T04:29:15.555Z,0
2017-01-16T04:30:29.061Z,0
2017-01-16T04:31:42.515Z,0
2017-01-16T04:32:56.004Z,0
2017-01-16T04:34:09.711Z,0
2017-01-16T04:35:23.491Z,0
2017-01-16T04:36:36.909Z,0
2017-01-16T04:37:50.386Z,0
2017-01-16T04:39:04.008Z,0
2017-01-16T04:40:17.904Z,0
2017-01-16T04:41:31.321Z,0
2017-01-16T04:42:44.800Z,0
2017-01-16T04:43:58.281Z,0
2017-01-16T04:45:11.691Z,0
2017-01-16T04:46:40.323Z,0
2017-01-16T04:47:53.756Z,0
2017-01-16T04:49:07.202Z,0
2017-01-16T04:50:20.629Z,0
2017-01-16T04:51:34.199Z,0
2017-01-16T04:52:47.896Z,0
2017-01-16T04:54:01.407Z,0
2017-01-16T04:55:17.043Z,0
2017-01-16T04:56:31.007Z,0
2017-01-16T04:57:44.477Z,0
2017-01-16T04:58:58.246Z,0
2017-01-16T05:00:12.140Z,0
2017-01-16T05:01:25.587Z,0
2017-01-16T05:02:39.120Z,0
2017-01-16T05:03:53.015Z,0
2017-01-16T05:05:06.726Z,0
2017-01-16T05:06:20.178Z,0
2017-01-16T05:07:33.708Z,0
2017-01-16T05:08:47.148Z,0
2017-01-16T05:10:00.623Z,0
2017-01-16T05:11:14.484Z,0
2017-01-16T05:12:27.916Z,0
2017-01-16T05:13:41.481Z,0
2017-01-16T05:14:54.936Z,0
2017-01-16T05:16:08.421Z,0
2017-01-16T05:17:22.150Z,0
2017-01-16T05:18:35.699Z,0
2017-01-16T05:19:49.118Z,0
2017-01-16T05:21:02.581Z,0
2017-01-16T05:22:16.004Z,0
2017-01-16T05:23:29.839Z,0
2017-01-16T05:24:43.288Z,0
2017-01-16T05:25:56.706Z,0
2017-01-16T05:27:10.153Z,0
2017-01-16T05:28:23.569Z,0
2017-01-16T05:29:37.371Z,0
2017-01-16T05:30:50.848Z,0
2017-01-16T05:32:04.264Z,0
2017-01-16T05:33:17.700Z,0
2017-01-16T05:34:31.643Z,0
2017-01-16T05:35:45.398Z,0
2017-01-16T05:36:58.943Z,0
2017-01-16T05:38:12.375Z,0
2017-01-16T05:39:26.266Z,0
2017-01-16T05:40:39.695Z,0
2017-01-16T05:41:53.448Z,0
2017-01-16T05:43:06.989Z,0
2017-01-16T05:44:21.406Z,0
2017-01-16T05:45:37.587Z,0
2017-01-16T05:46:51.153Z,0
2017-01-16T05:48:04.912Z,0
2017-01-16T05:49:18.396Z,0
2017-01-16T05:50:32.108Z,0
2017-01-16T05:51:46.044Z,0
2017-01-16T05:52:59.459Z,0
2017-01-16T05:54:13.209Z,0
2017-01-16T05:55:27.188Z,0
2017-01-16T05:56:41.035Z,0
2017-01-16T05:57:54.450Z,0
2017-01-16T05:59:07.887Z,0
2017-01-16T06:00:21.705Z,0
2017-01-16T06:01:35.270Z,0
2017-01-16T06:02:48.827Z,0
2017-01-16T06:04:02.273Z,0
2017-01-16T06:05:15.727Z,0
2017-01-16T06:06:29.656Z,0
2017-01-16T06:07:43.093Z,0
2017-01-16T06:08:56.551Z,0
2017-01-16T06:10:09.969Z,0
2017-01-16T06:11:25.693Z,0
2017-01-16T06:12:39.397Z,0
2017-01-16T06:13:53.358Z,0
2017-01-16T06:15:06.771Z,0
2017-01-16T06:16:20.234Z,0
2017-01-16T06:17:34.921Z,0
2017-01-16T06:18:48.635Z,0
2017-01-16T06:20:02.081Z,0
2017-01-16T06:21:15.731Z,0
2017-01-16T06:22:31.013Z,0
2017-01-16T06:23:46.794Z,0
2017-01-16T06:25:03.071Z,0
2017-01-16T06:26:17.020Z,0
2017-01-16T06:27:31.751Z,0
2017-01-16T06:28:45.223Z,0
2017-01-16T06:29:58.635Z,0
2017-01-16T06:31:12.395Z,0
2017-01-16T06:32:27.117Z,0
2017-01-16T06:33:40.941Z,0
2017-01-16T06:34:54.377Z,0
2017-01-16T06:36:07.814Z,0
2017-01-16T06:37:21.506Z,0
2017-01-16T06:38:35.027Z,0
2017-01-16T06:39:48.545Z,0
2017-01-16T06:41:01.968Z,0
2017-01-16T06:42:15.791Z,0
2017-01-16T06:43:29.589Z,0
2017-01-16T06:44:43.042Z,0
2017-01-16T06:45:56.915Z,4
2017-01-16T06:47:10.439Z,0
2017-01-16T06:48:24.012Z,0
2017-01-16T06:49:38.114Z,4
2017-01-16T06:50:51.543Z,4
2017-01-16T06:52:05.003Z,8
2017-01-16T06:53:18.677Z,8
2017-01-16T06:54:32.254Z,8
2017-01-16T06:55:46.046Z,8
2017-01-16T06:56:59.460Z,8
2017-01-16T06:58:12.903Z,12
2017-01-16T06:59:26.489Z,16
2017-01-16T07:00:40.234Z,16
2017-01-16T07:01:53.932Z,24
2017-01-16T07:03:07.412Z,24
2017-01-16T07:04:20.966Z,28
2017-01-16T07:05:34.420Z,32
2017-01-16T07:06:47.881Z,36
2017-01-16T07:08:01.581Z,44
2017-01-16T07:09:15.012Z,48
2017-01-16T07:10:28.865Z,56
2017-01-16T07:11:42.283Z,64
2017-01-16T07:12:55.719Z,72
2017-01-16T07:14:09.482Z,84
2017-01-16T07:15:24.139Z,88
2017-01-16T07:16:38.039Z,100
2017-01-16T07:17:51.553Z,112
2017-01-16T07:19:05.054Z,120
2017-01-16T07:20:19.340Z,132
2017-01-16T07:21:32.759Z,148
2017-01-16T07:22:46.197Z,156
2017-01-16T07:23:59.630Z,168
2017-01-16T07:25:13.116Z,180
2017-01-16T07:26:27.544Z,188
2017-01-16T07:27:43.203Z,200
2017-01-16T07:28:56.734Z,200
2017-01-16T07:30:10.567Z,208
2017-01-16T07:31:24.203Z,212
2017-01-16T07:32:38.008Z,216
2017-01-16T07:33:51.452Z,220
2017-01-16T07:35:05.113Z,216
2017-01-16T07:36:18.691Z,224
2017-01-16T07:37:32.539Z,228
2017-01-16T07:38:46.265Z,220
2017-01-16T07:39:59.743Z,212
2017-01-16T07:41:13.309Z,196
2017-01-16T07:42:26.880Z,204
2017-01-16T07:43:40.304Z,232
2017-01-16T07:44:54.476Z,220
2017-01-16T07:46:08.105Z,236
2017-01-16T07:47:22.869Z,272
2017-01-16T07:48:36.444Z,288
2017-01-16T07:49:50.144Z,308
2017-01-16T07:51:04.057Z,316
2017-01-16T07:52:18.913Z,348
2017-01-16T07:53:32.437Z,376
2017-01-16T07:54:46.131Z,408
2017-01-16T07:55:59.908Z,460
2017-01-16T07:57:20.432Z,504
2017-01-16T07:58:34.210Z,564
2017-01-16T07:59:47.880Z,596
2017-01-16T08:01:01.535Z,564
2017-01-16T08:02:15.116Z,620
2017-01-16T08:03:29.757Z,580
2017-01-16T08:04:43.201Z,580
2017-01-16T08:05:56.643Z,520
2017-01-16T08:07:10.096Z,616
2017-01-16T08:08:23.630Z,644
2017-01-16T08:09:37.665Z,672
2017-01-16T08:10:51.252Z,660
2017-01-16T08:12:04.783Z,748
2017-01-16T08:13:18.533Z,700
2017-01-16T08:14:32.102Z,848
2017-01-16T08:15:45.841Z,856
2017-01-16T08:16:59.320Z,952
2017-01-16T08:18:12.895Z,948
2017-01-16T08:19:26.492Z,1068
2017-01-16T08:20:40.625Z,1140
2017-01-16T08:21:54.444Z,1140
2017-01-16T08:23:07.911Z,1280
2017-01-16T08:24:21.611Z,1108
2017-01-16T08:25:35.140Z,1044
2017-01-16T08:26:48.685Z,1248
2017-01-16T08:28:02.432Z,1052
2017-01-16T08:29:16.015Z,1100
2017-01-16T08:30:29.661Z,1216
2017-01-16T08:31:43.315Z,1128
2017-01-16T08:32:56.866Z,1104
2017-01-16T08:34:10.847Z,1192
2017-01-16T08:35:24.538Z,1156
2017-01-16T08:36:38.063Z,1144
2017-01-16T08:37:51.613Z,1208
2017-01-16T08:39:05.136Z,1452
2017-01-16T08:40:19.181Z,1536
2017-01-16T08:41:32.809Z,1472
2017-01-16T08:42:46.385Z,1376
2017-01-16T08:44:02.167Z,1424
2017-01-16T08:45:15.898Z,1476
2017-01-16T08:46:29.677Z,1448
2017-01-16T08:47:43.201Z,1440
2017-01-16T08:48:57.212Z,1500
2017-01-16T08:50:11.076Z,1484
2017-01-16T08:51:24.624Z,1416
2017-01-16T08:52:38.356Z,1416
2017-01-16T08:53:51.918Z,1424
2017-01-16T08:55:05.530Z,1464
2017-01-16T08:56:19.084Z,1600
2017-01-16T08:57:32.522Z,1712
2017-01-16T08:58:46.235Z,1832
2017-01-16T08:59:59.670Z,1976
2017-01-16T09:01:13.215Z,1984
2017-01-16T09:02:26.634Z,1848
2017-01-16T09:03:40.105Z,1768
2017-01-16T09:04:53.845Z,1692
2017-01-16T09:06:08.573Z,1620
2017-01-16T09:07:22.439Z,1592
2017-01-16T09:08:35.921Z,1576
2017-01-16T09:09:49.426Z,1524
2017-01-16T09:11:02.954Z,1512
2017-01-16T09:12:17.779Z,1528
2017-01-16T09:13:31.252Z,1540
2017-01-16T09:14:44.745Z,1544
2017-01-16T09:15:58.360Z,1524
2017-01-16T09:17:12.310Z,1520
2017-01-16T09:18:26.018Z,1524
2017-01-16T09:19:39.896Z,1528
2017-01-16T09:20:53.386Z,1532
2017-01-16T09:22:07.679Z,1536
2017-01-16T09:23:21.437Z,1548
2017-01-16T09:24:34.868Z,1552
2017-01-16T09:25:48.296Z,1556
2017-01-16T09:27:01.772Z,1564
2017-01-16T09:28:15.527Z,1572
2017-01-16T09:29:29.234Z,1572
2017-01-16T09:30:42.857Z,1576
2017-01-16T09:31:56.476Z,1588
2017-01-16T09:33:10.005Z,1612
2017-01-16T09:34:23.715Z,1624
2017-01-16T09:35:38.840Z,1660
2017-01-16T09:36:52.341Z,1720
2017-01-16T09:38:07.695Z,1784
2017-01-16T09:39:21.172Z,1784
2017-01-16T09:40:34.699Z,1736
2017-01-16T09:41:48.817Z,1656
2017-01-16T09:43:02.367Z,1632
2017-01-16T09:44:15.807Z,1640
2017-01-16T09:45:29.676Z,1644
2017-01-16T09:46:43.074Z,1644
2017-01-16T09:47:56.870Z,1648
2017-01-16T09:49:10.420Z,1644
2017-01-16T09:50:23.954Z,1636
2017-01-16T09:51:37.446Z,1632
2017-01-16T09:52:50.865Z,1628
2017-01-16T09:54:06.347Z,1640
2017-01-16T09:55:19.869Z,1652
2017-01-16T09:56:33.318Z,1648
2017-01-16T09:57:46.770Z,1648
2017-01-16T09:59:00.213Z,1648
2017-01-16T10:00:16.193Z,1660
2017-01-16T10:01:29.681Z,1656
2017-01-16T10:02:43.127Z,1660
2017-01-16T10:03:56.605Z,1660
2017-01-16T10:05:10.148Z,1668
2017-01-16T10:06:23.843Z,1668
2017-01-16T10:07:37.326Z,1664
2017-01-16T10:08:50.768Z,1668
2017-01-16T10:10:04.759Z,1676
2017-01-16T10:11:18.635Z,1676
2017-01-16T10:12:32.355Z,1668
2017-01-16T10:13:45.874Z,1676
2017-01-16T10:14:59.329Z,1676
2017-01-16T10:16:12.931Z,1668
2017-01-16T10:17:27.579Z,1676
2017-01-16T10:18:41.715Z,1680
2017-01-16T10:19:55.344Z,1684
2017-01-16T10:21:08.935Z,1680
2017-01-16T10:22:22.372Z,1680
2017-01-16T10:23:35.846Z,1680
2017-01-16T10:24:49.973Z,1684
2017-01-16T10:26:04.778Z,1680
2017-01-16T10:27:18.633Z,1680
2017-01-16T10:28:32.072Z,1688
2017-01-16T10:29:45.533Z,1688
2017-01-16T10:30:59.235Z,1684
2017-01-16T10:32:14.343Z,1692
2017-01-16T10:33:27.911Z,1700
2017-01-16T10:34:41.376Z,1700
2017-01-16T10:35:54.841Z,1700
2017-01-16T10:37:08.705Z,1712
2017-01-16T10:38:22.184Z,1708
2017-01-16T10:39:35.883Z,1704
2017-01-16T10:40:49.310Z,1704
2017-01-16T10:42:02.861Z,1712
2017-01-16T10:43:16.594Z,1720
2017-01-16T10:44:30.062Z,1728
2017-01-16T10:45:43.525Z,1760
2017-01-16T10:46:57.400Z,1720
2017-01-16T10:48:10.924Z,1716
2017-01-16T10:49:25.054Z,1728
2017-01-16T10:50:38.902Z,1800
2017-01-16T10:51:52.344Z,1852
2017-01-16T10:53:05.886Z,1780
2017-01-16T10:54:19.730Z,1840
2017-01-16T10:55:33.414Z,1744
2017-01-16T10:56:46.865Z,1772
2017-01-16T10:58:00.457Z,1728
2017-01-16T10:59:13.906Z,1744
2017-01-16T11:00:27.337Z,1780
2017-01-16T11:01:41.095Z,1804
2017-01-16T11:02:54.503Z,2072
2017-01-16T11:04:08.029Z,2232
2017-01-16T11:05:21.545Z,2332
2017-01-16T11:06:35.395Z,1960
2017-01-16T11:07:49.126Z,2024
2017-01-16T11:09:02.646Z,2088
2017-01-16T11:10:16.591Z,2024
2017-01-16T11:11:30.042Z,2340
2017-01-16T11:12:44.032Z,2372
2017-01-16T11:13:57.871Z,2400
2017-01-16T11:15:11.513Z,2500
2017-01-16T11:16:27.126Z,2544
2017-01-16T11:17:40.565Z,3144
2017-01-16T11:18:54.330Z,3092
2017-01-16T11:20:08.095Z,2536
2017-01-16T11:21:21.565Z,2880
2017-01-16T11:22:34.983Z,2832
2017-01-16T11:23:48.387Z,2392
2017-01-16T11:25:01.936Z,2332
2017-01-16T11:26:15.747Z,2336
2017-01-16T11:27:29.263Z,2364
2017-01-16T11:28:42.797Z,2292
2017-01-16T11:29:56.357Z,2220
2017-01-16T11:31:10.245Z,2544
2017-01-16T11:32:24.000Z,2828
2017-01-16T11:33:37.511Z,3316
2017-01-16T11:34:51.375Z,3172
2017-01-16T11:36:06.473Z,3120
2017-01-16T11:37:19.923Z,2924
2017-01-16T11:38:33.699Z,2968
2017-01-16T11:39:47.191Z,2872
2017-01-16T11:41:01.210Z,2676
2017-01-16T11:42:14.731Z,2740
2017-01-16T11:43:28.174Z,2660
2017-01-16T11:44:42.022Z,3000
2017-01-16T11:45:56.854Z,3072
2017-01-16T11:47:10.750Z,2720
2017-01-16T11:48:24.197Z,2784
2017-01-16T11:49:38.067Z,3152
2017-01-16T11:50:51.999Z,3128
2017-01-16T11:52:05.510Z,3044
2017-01-16T11:53:18.988Z,3156
2017-01-16T11:54:32.516Z,2768
2017-01-16T11:55:46.005Z,3080
2017-01-16T11:56:59.806Z,2916
2017-01-16T11:58:13.273Z,2508
2017-01-16T11:59:26.789Z,2736
2017-01-16T12:00:41.126Z,2796
2017-01-16T12:01:55.265Z,2584
2017-01-16T12:03:09.789Z,2700
2017-01-16T12:04:23.252Z,2780
2017-01-16T12:05:36.700Z,2324
2017-01-16T12:06:50.255Z,2512
2017-01-16T12:08:03.729Z,2908
2017-01-16T12:09:17.577Z,2740
2017-01-16T12:10:31.018Z,2612
2017-01-16T12:11:44.885Z,2644
2017-01-16T12:12:58.528Z,2448
2017-01-16T12:14:11.982Z,2508
2017-01-16T12:15:25.789Z,2460
2017-01-16T12:16:39.650Z,2560
2017-01-16T12:17:53.235Z,2560
2017-01-16T12:19:06.747Z,2584
2017-01-16T12:20:20.560Z,2528
2017-01-16T12:21:34.311Z,2476
2017-01-16T12:22:48.648Z,2720
2017-01-16T12:24:02.525Z,2676
2017-01-16T12:25:16.018Z,2464
2017-01-16T12:26:29.470Z,2360
2017-01-16T12:27:43.276Z,2388
2017-01-16T12:28:56.837Z,2212
2017-01-16T12:30:10.342Z,2224
2017-01-16T12:31:24.257Z,2180
2017-01-16T12:32:39.909Z,2060
2017-01-16T12:33:53.778Z,2036
2017-01-16T12:35:07.263Z,2140
2017-01-16T12:36:20.741Z,2480
2017-01-16T12:37:34.204Z,2996
2017-01-16T12:38:47.633Z,3120
2017-01-16T12:40:01.471Z,3064
2017-01-16T12:41:14.993Z,3196
2017-01-16T12:42:28.507Z,2992
2017-01-16T12:43:41.988Z,2696
2017-01-16T12:44:55.538Z,2536
2017-01-16T12:46:09.265Z,2380
2017-01-16T12:47:22.735Z,2068
2017-01-16T12:48:36.200Z,1860
2017-01-16T12:49:50.168Z,1912
2017-01-16T12:51:03.604Z,2104
2017-01-16T12:52:17.339Z,2416
2017-01-16T12:53:30.796Z,2540
2017-01-16T12:54:44.262Z,2472
2017-01-16T12:55:57.891Z,2420
2017-01-16T12:57:11.342Z,2660
2017-01-16T12:58:25.068Z,2620
2017-01-16T12:59:38.530Z,2556
2017-01-16T13:00:52.091Z,2632
2017-01-16T13:02:05.500Z,2736
2017-01-16T13:03:19.346Z,2800
2017-01-16T13:04:33.098Z,2872
2017-01-16T13:05:47.109Z,2996
2017-01-16T13:07:00.610Z,2500
2017-01-16T13:08:14.085Z,2264
2017-01-16T13:09:27.773Z,2136
2017-01-16T13:10:41.252Z,1988
2017-01-16T13:11:54.844Z,1824
2017-01-16T13:13:08.344Z,1708
2017-01-16T13:14:21.791Z,1584
2017-01-16T13:15:35.373Z,1580
2017-01-16T13:16:49.292Z,1644
2017-01-16T13:18:02.777Z,1624
2017-01-16T13:19:16.280Z,1604
2017-01-16T13:20:29.769Z,1568
2017-01-16T13:21:43.468Z,1632
2017-01-16T13:22:57.192Z,1688
2017-01-16T13:24:10.644Z,1816
2017-01-16T13:25:24.551Z,1836
2017-01-16T13:26:38.082Z,1960
2017-01-16T13:27:51.774Z,2016
2017-01-16T13:29:06.003Z,2108
2017-01-16T13:30:19.464Z,2180
2017-01-16T13:31:32.967Z,2152
2017-01-16T13:32:47.774Z,2280
2017-01-16T13:34:01.206Z,2288
2017-01-16T13:35:15.444Z,2424
2017-01-16T13:36:29.365Z,2308
2017-01-16T13:37:43.739Z,2404
2017-01-16T13:38:57.337Z,2316
2017-01-16T13:40:11.271Z,2060
2017-01-16T13:41:25.040Z,2024
2017-01-16T13:42:39.542Z,2160
2017-01-16T13:43:53.733Z,2144
2017-01-16T13:45:07.277Z,1928
2017-01-16T13:46:20.742Z,1804
2017-01-16T13:47:34.626Z,1768
2017-01-16T13:48:50.440Z,1600
2017-01-16T13:50:03.983Z,1460
2017-01-16T13:51:17.514Z,1356
2017-01-16T13:52:30.982Z,1316
2017-01-16T13:53:45.245Z,1300
2017-01-16T13:54:59.296Z,1304
2017-01-16T13:56:12.871Z,1320
2017-01-16T13:57:26.464Z,1408
2017-01-16T13:58:40.158Z,1476
2017-01-16T13:59:54.537Z,1492
2017-01-16T14:01:08.429Z,1484
2017-01-16T14:02:21.973Z,1472
2017-01-16T14:03:35.643Z,1460
2017-01-16T14:04:49.100Z,1452
2017-01-16T14:06:02.858Z,1444
2017-01-16T14:07:16.310Z,1436
2017-01-16T14:08:29.837Z,1428
2017-01-16T14:09:43.977Z,1424
2017-01-16T14:10:57.490Z,1420
2017-01-16T14:12:11.326Z,1424
2017-01-16T14:13:25.221Z,1420
2017-01-16T14:14:38.942Z,1416
2017-01-16T14:15:52.791Z,1400
2017-01-16T14:17:06.283Z,1404
2017-01-16T14:18:20.070Z,1412
2017-01-16T14:19:33.548Z,1444
2017-01-16T14:20:47.114Z,1428
2017-01-16T14:22:00.643Z,1428
2017-01-16T14:23:14.114Z,1340
2017-01-16T14:24:28.253Z,1324
2017-01-16T14:25:41.776Z,1324
2017-01-16T14:26:55.467Z,1296
2017-01-16T14:28:08.986Z,1288
2017-01-16T14:29:22.522Z,1292
2017-01-16T14:30:36.926Z,1324
2017-01-16T14:31:50.902Z,1364
2017-01-16T14:33:04.427Z,1340
2017-01-16T14:34:17.936Z,1320
2017-01-16T14:35:31.432Z,1332
2017-01-16T14:36:46.510Z,1308
2017-01-16T14:37:59.964Z,1248
2017-01-16T14:39:13.429Z,1196
2017-01-16T14:40:26.847Z,1180
2017-01-16T14:41:40.798Z,1160
2017-01-16T14:42:54.616Z,1140
2017-01-16T14:44:08.552Z,1124
2017-01-16T14:45:22.200Z,1112
2017-01-16T14:46:37.380Z,1116
2017-01-16T14:47:50.819Z,1140
2017-01-16T14:49:04.586Z,1120
2017-01-16T14:50:18.089Z,1088
2017-01-16T14:51:31.585Z,1032
2017-01-16T14:52:45.083Z,1024
2017-01-16T14:53:58.536Z,1012
2017-01-16T14:55:12.318Z,1036
2017-01-16T14:56:25.779Z,1076
2017-01-16T14:57:39.803Z,1140
2017-01-16T14:58:53.529Z,1032
2017-01-16T15:00:07.002Z,968
2017-01-16T15:01:20.939Z,1020
2017-01-16T15:02:34.569Z,896
2017-01-16T15:03:48.010Z,860
2017-01-16T15:05:03.835Z,840
2017-01-16T15:06:17.411Z,824
2017-01-16T15:07:31.233Z,804
2017-01-16T15:08:44.836Z,788
2017-01-16T15:09:58.390Z,776
2017-01-16T15:11:11.867Z,776
2017-01-16T15:12:25.370Z,804
2017-01-16T15:13:40.832Z,804
2017-01-16T15:14:54.287Z,724
2017-01-16T15:16:08.173Z,676
2017-01-16T15:17:22.104Z,652
2017-01-16T15:18:36.781Z,628
2017-01-16T15:19:52.222Z,596
2017-01-16T15:21:05.706Z,572
2017-01-16T15:22:19.155Z,556
2017-01-16T15:23:32.772Z,544
2017-01-16T15:24:46.213Z,524
2017-01-16T15:25:59.947Z,512
2017-01-16T15:27:13.392Z,504
2017-01-16T15:28:26.852Z,472
2017-01-16T15:29:41.041Z,452
2017-01-16T15:30:54.498Z,432
2017-01-16T15:32:08.701Z,416
2017-01-16T15:33:22.144Z,396
2017-01-16T15:34:35.751Z,380
2017-01-16T15:35:49.255Z,364
2017-01-16T15:37:02.861Z,344
2017-01-16T15:38:16.600Z,324
2017-01-16T15:39:30.109Z,304
2017-01-16T15:40:43.695Z,288
2017-01-16T15:41:57.156Z,268
2017-01-16T15:43:10.611Z,252
2017-01-16T15:44:24.383Z,236
2017-01-16T15:45:53.161Z,212
2017-01-16T15:47:06.612Z,196
2017-01-16T15:48:20.093Z,184
2017-01-16T15:49:33.561Z,168
2017-01-16T15:50:47.789Z,152
2017-01-16T15:52:01.240Z,136
2017-01-16T15:53:14.709Z,124
2017-01-16T15:54:28.218Z,112
2017-01-16T15:55:41.781Z,96
2017-01-16T15:56:55.465Z,88
2017-01-16T15:58:08.937Z,80
2017-01-16T15:59:22.432Z,68
2017-01-16T16:00:35.923Z,60
2017-01-16T16:01:49.476Z,52
2017-01-16T16:03:03.199Z,44
2017-01-16T16:04:16.664Z,40
2017-01-16T16:05:30.177Z,32
2017-01-16T16:06:44.954Z,28
2017-01-16T16:07:58.475Z,24
2017-01-16T16:09:12.256Z,20
2017-01-16T16:10:25.713Z,16
2017-01-16T16:11:39.866Z,12
2017-01-16T16:12:53.801Z,8
2017-01-16T16:14:07.387Z,8
2017-01-16T16:15:27.163Z,8
2017-01-16T16:16:56.574Z,4
2017-01-16T16:18:19.551Z,4
2017-01-16T16:19:39.702Z,4
2017-01-16T16:21:04.894Z,4
2017-01-16T16:22:33.034Z,4
2017-01-16T16:23:56.440Z,4
2017-01-16T16:25:16.118Z,0
2017-01-16T16:26:29.829Z,0
2017-01-16T16:27:45.728Z,0
2017-01-16T16:28:59.188Z,0
2017-01-16T16:30:12.634Z,0
2017-01-16T16:31:26.526Z,0
2017-01-16T16:32:41.552Z,0
2017-01-16T16:33:55.010Z,0
2017-01-16T16:35:08.455Z,0
2017-01-16T16:36:22.018Z,0
2017-01-16T16:37:35.562Z,0
2017-01-16T16:38:49.394Z,0
2017-01-16T16:40:02.820Z,0
2017-01-16T16:41:16.301Z,0
2017-01-16T16:42:30.030Z,0
2017-01-16T16:43:43.706Z,0
2017-01-16T16:44:57.432Z,0
2017-01-16T16:46:11.388Z,0
2017-01-16T16:47:25.122Z,0
2017-01-16T16:48:39.114Z,0
2017-01-16T16:49:52.593Z,0
2017-01-16T16:51:06.350Z,0
2017-01-16T16:52:19.821Z,0
2017-01-16T16:53:33.322Z,0
2017-01-16T16:54:46.795Z,0
2017-01-16T16:56:00.347Z,0
2017-01-16T16:57:13.836Z,0
2017-01-16T16:58:27.371Z,0
2017-01-16T16:59:40.920Z,0
2017-01-16T17:00:54.675Z,0
2017-01-16T17:02:08.344Z,0
2017-01-16T17:03:22.465Z,0
2017-01-16T17:04:38.233Z,0
2017-01-16T17:05:52.098Z,0
2017-01-16T17:07:05.558Z,0
2017-01-16T17:08:19.042Z,0
2017-01-16T17:09:32.886Z,0
2017-01-16T17:10:46.807Z,0
2017-01-16T17:12:00.840Z,0
2017-01-16T17:13:14.351Z,0
2017-01-16T17:14:27.781Z,0
2017-01-16T17:15:42.052Z,0
2017-01-16T17:16:55.518Z,0
2017-01-16T17:18:08.990Z,0
2017-01-16T17:19:22.411Z,0
2017-01-16T17:20:37.141Z,0
2017-01-16T17:21:50.843Z,0